Strona główna
METAR-TAF:

METAR-TAF

Lotnisko :

Port lotniczy Duszanbe

Duszanbe, Tadżykistan

Szerokość geograficzna: 38-33N, Długość geograficzna: 068-47E, wysokość: 803 m

Aktualna obserwacja pogody

Raport powstał 14 minut temu, godzina 02:30 UTC
Wiatr 2 kt z kierunków zmiennych
Temperatura 3°C
Wilgotność 75%
Ciśnienie 1025 hPa
Widzialność: 8000 m

METAR: UTDD 180230Z VRB01MPS 8000 NSC 03/M01 Q1025 R09/CLRD// NOSIG RMK QFE700/0933

czas: 07:44 (02:44 UTC)

Prognoza

Raport powstał 2 godziny i 44 minut temu, godzina 00:00 UTC
Prognoza ważna od 18 godzina 01 UTC do 18 godzina 13 UTC
Wiatr 4 kt z kierunków zmiennych
Widzialność: 6000 m
Mało chmury na wysokości 6600 ft, Cumulonimbus.
Rozproszone chmury na wysokości 13000 ft
Przejściowo
od 18 godzina 01 UTC do 18 godzina 05 UTC
Widzialność: 3100 m
zamglenie, dym
Prawdopodobieństwo 40% :
Przejściowo
od 18 godzina 01 UTC do 18 godzina 05 UTC
Widzialność: 0500 m
mgła

TAF: UTDD 180000Z 1801/1813 VRB02MPS 6000 FEW066CB SCT130 TEMPO 1801/1805 3100 BR FU PROB40 TEMPO 1801/1805 0500 FG

Obserwacja i prognoza pogody dla ponad 4000 lotnisk (raport METAR i TAF).

Dostępne stacje oznaczono żółtymi i czerwonymi punktami na mapie.

Najedź kursorem aby zobaczyć nazwę stacji.

Kliknij aby zobaczyć obserwacje i prognozy pogody.

Aby zmienić mapę: kliknij na zielony przycisk z czarnym krzyżykiem, aby powiększyć; na zielony przycisk z myślnikiem, aby pomniejszyć; na zielone strzałki, aby przejść do map sąsiednich.


METAR-TAF: